Time;durP1;ratioP1;P1;durP2;ratioP2;P2;SDS_P1;SDS_P2;PMS_P1;PMS_P2;Temp;Humidity;BMP_temperature;BMP_pressure;BME280_temperature;BME280_humidity;BME280_pressure;Samples;Min_cycle;Max_cycle;Signal;HPM_P1;HPM_P2
2023/02/11 05:47:22;;;;;;;;;;;;;;;;;;5128460;27;19963;-78
2023/02/11 05:49:48;;;;;;;;;;;;;;;;;;5123467;28;19963;-79
2023/02/11 05:52:13;;;;;;;;;;;;;;;;;;5111235;28;19913;-80
2023/02/11 05:54:38;;;;;;;;;;;;;;;;;;5098861;28;19912;-82
2023/02/11 05:57:03;;;;;;;;;;;;;;;;;;5114405;28;19911;-83
2023/02/11 05:59:28;;;;;;;;;;;;;;;;;;5107938;28;20057;-80
2023/02/11 06:01:53;;;;;;;;;;;;;;;;;;5112352;28;19919;-81
2023/02/11 06:04:18;;;;;;;;;;;;;;;;;;5118469;28;19919;-81
2023/02/11 06:06:44;;;;;;;;;;;;;;;;;;5098020;28;19927;-80
2023/02/11 06:09:09;;;;;;;;;;;;;;;;;;5096442;28;19927;-80
2023/02/11 06:11:34;;;;;;;;;;;;;;;;;;5097636;28;19916;-80
2023/02/11 06:13:59;;;;;;;;;;;;;;;;;;5097210;28;19919;-81
2023/02/11 06:16:24;;;;;;;;;;;;;;;;;;5098716;28;19916;-80
2023/02/11 06:18:49;;;;;;;;;;;;;;;;;;5099633;28;19920;-80
2023/02/11 06:21:14;;;;;;;;;;;;;;;;;;5096183;28;19916;-80
2023/02/11 06:23:40;;;;;;;;;;;;;;;;;;5095997;28;19926;-80
2023/02/11 06:26:05;;;;;;;;;;;;;;;;;;5098126;27;20010;-80
2023/02/11 06:28:30;;;;;;;;;;;;;;;;;;5094649;28;20006;-81
2023/02/11 06:30:55;;;;;;;;;;;;;;;;;;5107949;28;19912;-80
2023/02/11 06:33:20;;;;;;;;;;;;;;;;;;5102505;28;19955;-80
2023/02/11 06:35:45;;;;;;;;;;;;;;;;;;5100260;28;19996;-81
2023/02/11 06:38:11;;;;;;;;;;;;;;;;;;5103776;28;19912;-80
2023/02/11 06:40:36;;;;;;;;;;;;;;;;;;5112600;28;19916;-80
2023/02/11 06:43:01;;;;;;;;;;;;;;;;;;5124511;28;19912;-80
2023/02/11 06:45:26;;;;;;;;;;;;;;;;;;5101905;28;19967;-79
2023/02/11 06:47:51;;;;;;;;;;;;;;;;;;5101809;28;19920;-80
2023/02/11 06:50:17;;;;;;;;;;;;;;;;;;5101250;28;19916;-79
2023/02/11 06:52:42;;;;;;;;;;;;;;;;;;5118378;28;20380;-79
2023/02/11 06:55:07;;;;;;;;;;;;;;;;;;5103837;28;20000;-79
2023/02/11 06:57:32;;;;;;;;;;;;;;;;;;5106875;28;20415;-81
2023/02/11 06:59:57;;;;;;;;;;;;;;;;;;5091153;28;19916;-80
2023/02/11 07:02:22;;;;;;;;;;;;;;;;;;5084219;28;19997;-79
2023/02/11 07:04:47;;;;;;;;;;;;;;;;;;5082836;28;19912;-80
2023/02/11 07:07:13;;;;;;;;;;;;;;;;;;5087758;28;19923;-81
2023/02/11 07:09:38;;;;;;;;;;;;;;;;;;5094605;28;20006;-82
2023/02/11 07:12:03;;;;;;;;;;;;;;;;;;5081254;28;19999;-81
2023/02/11 07:14:28;;;;;;;;;;;;;;;;;;5086510;28;19920;-80
2023/02/11 07:16:53;;;;;;;;;;;;;;;;;;5077804;28;20363;-81
2023/02/11 07:19:18;;;;;;;;;;;;;;;;;;5083752;28;20009;-81
2023/02/11 07:21:44;;;;;;;;;;;;;;;;;;5086082;28;19908;-83
2023/02/11 07:24:09;;;;;;;;;;;;;;;;;;5088207;28;20446;-82
2023/02/11 07:26:34;;;;;;;;;;;;;;;;;;5092440;28;19950;-83
2023/02/11 07:28:59;;;;;;;;;;;;;;;;;;5087761;28;19911;-85
2023/02/11 07:31:24;;;;;;;;;;;;;;;;;;5084276;28;19981;-79
2023/02/11 07:33:49;;;;;;;;;;;;;;;;;;5092290;28;19912;-83
2023/02/11 07:36:15;;;;;;;;;;;;;;;;;;5086295;28;19920;-81
2023/02/11 07:38:40;;;;;;;;;;;;;;;;;;5110542;28;20362;-82
2023/02/11 07:41:05;;;;;;;;;;;;;;;;;;5093084;28;20416;-79
2023/02/11 07:43:30;;;;;;;;;;;;;;;;;;5090228;28;19919;-79
2023/02/11 07:45:55;;;;;;;;;;;;;;;;;;5098801;28;19923;-81
2023/02/11 07:48:20;;;;;;;;;;;;;;;;;;5110581;28;20262;-81
2023/02/11 07:50:45;;;;;;;;;;;;;;;;;;5096163;28;19912;-84
2023/02/11 07:53:10;;;;;;;;;;;;;;;;;;5092411;28;19964;-83
2023/02/11 07:55:36;;;;;;;;;;;;;;;;;;5087669;28;20059;-85
2023/02/11 07:58:01;;;;;;;;;;;;;;;;;;5093010;28;19919;-83
2023/02/11 08:00:26;;;;;;;;;;;;;;;;;;5090761;28;20282;-84
2023/02/11 08:02:51;;;;;;;;;;;;;;;;;;5092248;28;20444;-82
2023/02/11 08:05:16;;;;;;;;;;;;;;;;;;5103710;28;19916;-84
2023/02/11 08:07:41;;;;;;;;;;;;;;;;;;5077438;28;19912;-82
2023/02/11 08:10:06;;;;;;;;;;;;;;;;;;5074666;28;19920;-83
2023/02/11 08:12:31;;;;;;;;;;;;;;;;;;5090872;28;19912;-83
2023/02/11 08:14:57;;;;;;;;;;;;;;;;;;5088382;28;19915;-84
2023/02/11 08:17:22;;;;;;;;;;;;;;;;;;5088431;28;19912;-83
2023/02/11 08:19:47;;;;;;;;;;;;;;;;;;5084332;28;19918;-82
2023/02/11 08:22:12;;;;;;;;;;;;;;;;;;5088587;28;19949;-82
2023/02/11 08:24:37;;;;;;;;;;;;;;;;;;5079652;28;20496;-84
2023/02/11 08:27:02;;;;;;;;;;;;;;;;;;5081291;28;19920;-83
2023/02/11 08:29:28;;;;;;;;;;;;;;;;;;5080153;28;19966;-85
2023/02/11 08:31:53;;;;;;;;;;;;;;;;;;5081184;28;19958;-82
2023/02/11 08:34:18;;;;;;;;;;;;;;;;;;5084574;28;20351;-83
2023/02/11 08:36:43;;;;;;;;;;;;;;;;;;5073239;28;19934;-82
2023/02/11 08:39:08;;;;;;;;;;;;;;;;;;5079932;28;19966;-81
2023/02/11 08:41:34;;;;;;;;;;;;;;;;;;5075732;28;19916;-81
2023/02/11 08:43:59;;;;;;;;;;;;;;;;;;5071809;28;19913;-82
2023/02/11 08:46:24;;;;;;;;;;;;;;;;;;5077336;28;20297;-84
2023/02/11 08:48:49;;;;;;;;;;;;;;;;;;5086023;28;19915;-83
2023/02/11 08:51:14;;;;;;;;;;;;;;;;;;5093613;28;19961;-82
2023/02/11 08:53:39;;;;;;;;;;;;;;;;;;5080752;28;19917;-82
2023/02/11 08:56:05;;;;;;;;;;;;;;;;;;5088076;28;19941;-82
2023/02/11 08:58:30;;;;;;;;;;;;;;;;;;5090978;28;19912;-82
2023/02/11 09:00:55;;;;;;;;;;;;;;;;;;5091316;28;19912;-83
2023/02/11 09:03:20;;;;;;;;;;;;;;;;;;5076981;28;19912;-82
2023/02/11 09:05:45;;;;;;;;;;;;;;;;;;5091888;28;19912;-82
2023/02/11 09:08:11;;;;;;;;;;;;;;;;;;5091383;28;19947;-82
2023/02/11 09:10:36;;;;;;;;;;;;;;;;;;5087477;28;19928;-82
2023/02/11 09:13:01;;;;;;;;;;;;;;;;;;5089613;28;19912;-81
2023/02/11 09:15:26;;;;;;;;;;;;;;;;;;5087262;28;19912;-80
2023/02/11 09:17:51;;;;;;;;;;;;;;;;;;5071534;28;19991;-80
2023/02/11 09:20:16;;;;;;;;;;;;;;;;;;5078749;28;19934;-80
2023/02/11 09:22:41;;;;;;;;;;;;;;;;;;5089571;28;19908;-81
2023/02/11 09:25:07;;;;;;;;;;;;;;;;;;5086528;28;19919;-80
2023/02/11 09:27:32;;;;;;;;;;;;;;;;;;5071116;28;19908;-80
2023/02/11 09:29:57;;;;;;;;;;;;;;;;;;5071510;28;19909;-81
2023/02/11 09:32:22;;;;;;;;;;;;;;;;;;5071499;28;20023;-80
2023/02/11 09:34:47;;;;;;;;;;;;;;;;;;5076625;28;21347;-80
2023/02/11 09:37:12;;;;;;;;;;;;;;;;;;5071238;28;20559;-79
2023/02/11 09:39:37;;;;;;;;;;;;;;;;;;5080178;28;20370;-79
2023/02/11 09:42:03;;;;;;;;;;;;;;;;;;5087166;28;19916;-79
2023/02/11 09:44:28;;;;;;;;;;;;;;;;;;5087585;28;19912;-78
2023/02/11 09:46:53;;;;;;;;;;;;;;;;;;5090551;28;19924;-80
2023/02/11 09:49:18;;;;;;;;;;;;;;;;;;5090403;28;20050;-80
2023/02/11 09:51:43;;;;;;;;;;;;;;;;;;5089570;28;20439;-80
2023/02/11 09:54:08;;;;;;;;;;;;;;;;;;5082548;28;19912;-80
2023/02/11 09:56:33;;;;;;;;;;;;;;;;;;5092627;28;19908;-80
2023/02/11 09:58:59;;;;;;;;;;;;;;;;;;5080157;28;19912;-80
2023/02/11 10:01:24;;;;;;;;;;;;;;;;;;5073023;28;19919;-80
2023/02/11 10:03:49;;;;;;;;;;;;;;;;;;5080436;28;19919;-80
2023/02/11 10:06:14;;;;;;;;;;;;;;;;;;5072864;28;19916;-80
2023/02/11 10:08:39;;;;;;;;;;;;;;;;;;5080524;28;20010;-80
2023/02/11 10:11:04;;;;;;;;;;;;;;;;;;5086530;28;20019;-80
2023/02/11 10:13:30;;;;;;;;;;;;;;;;;;5070579;28;19913;-80
2023/02/11 10:15:57;;;;;;;;;;;;;;;;;;5089291;28;20003;-83
2023/02/11 10:18:23;;;;;;;;;;;;;;;;;;5087725;28;19969;-79
2023/02/11 10:20:48;;;;;;;;;;;;;;;;;;5079866;28;21040;-79
2023/02/11 10:23:13;;;;;;;;;;;;;;;;;;5077918;28;19943;-80
2023/02/11 10:25:39;;;;;;;;;;;;;;;;;;5080094;28;19924;-79
2023/02/11 10:28:04;;;;;;;;;;;;;;;;;;5080151;28;20371;-80
2023/02/11 10:30:29;;;;;;;;;;;;;;;;;;5075366;28;20389;-80
2023/02/11 10:32:54;;;;;;;;;;;;;;;;;;5086148;28;19909;-79
2023/02/11 10:35:20;;;;;;;;;;;;;;;;;;5090678;28;19919;-79
2023/02/11 10:37:45;;;;;;;;;;;;;;;;;;5083852;28;19908;-81
2023/02/11 10:40:10;;;;;;;;;;;;;;;;;;5091960;28;19922;-80
2023/02/11 10:42:35;;;;;;;;;;;;;;;;;;5099278;28;19912;-80
2023/02/11 10:45:00;;;;;;;;;;;;;;;;;;5081326;28;20415;-80
2023/02/11 10:47:26;;;;;;;;;;;;;;;;;;5096708;28;19947;-81
2023/02/11 10:49:51;;;;;;;;;;;;;;;;;;5096571;28;19908;-81
2023/02/11 10:52:16;;;;;;;;;;;;;;;;;;5077614;28;20339;-81
2023/02/11 10:54:41;;;;;;;;;;;;;;;;;;5076748;28;19948;-79
2023/02/11 10:57:06;;;;;;;;;;;;;;;;;;5074575;28;19931;-79
2023/02/11 10:59:31;;;;;;;;;;;;;;;;;;5098912;28;19994;-80
2023/02/11 11:01:58;;;;;;;;;;;;;;;;;;5093856;28;20007;-80
2023/02/11 11:04:23;;;;;;;;;;;;;;;;;;5074269;28;20513;-80
2023/02/11 11:06:48;;;;;;;;;;;;;;;;;;5075711;28;20000;-79
2023/02/11 11:09:13;;;;;;;;;;;;;;;;;;5075012;28;19912;-80
2023/02/11 11:11:38;;;;;;;;;;;;;;;;;;5084913;28;19913;-81
2023/02/11 11:14:03;;;;;;;;;;;;;;;;;;5075210;28;20011;-81
2023/02/11 11:16:28;;;;;;;;;;;;;;;;;;5102952;28;19912;-80
2023/02/11 11:18:54;;;;;;;;;;;;;;;;;;5101731;28;20275;-81
2023/02/11 11:21:19;;;;;;;;;;;;;;;;;;5079219;28;20271;-80
2023/02/11 11:23:44;;;;;;;;;;;;;;;;;;5086291;28;19912;-80
2023/02/11 11:26:09;;;;;;;;;;;;;;;;;;5094876;28;19951;-80
2023/02/11 11:28:35;;;;;;;;;;;;;;;;;;5083601;28;19916;-80
2023/02/11 11:31:00;;;;;;;;;;;;;;;;;;5073313;28;19909;-80
2023/02/11 11:33:25;;;;;;;;;;;;;;;;;;5077547;28;19913;-79
2023/02/11 11:35:50;;;;;;;;;;;;;;;;;;5091253;28;20442;-79
2023/02/11 11:38:15;;;;;;;;;;;;;;;;;;5085596;28;20340;-80
2023/02/11 11:40:41;;;;;;;;;;;;;;;;;;5084119;28;19916;-80
2023/02/11 11:43:06;;;;;;;;;;;;;;;;;;5081563;28;20317;-80
2023/02/11 11:45:31;;;;;;;;;;;;;;;;;;5082415;28;19959;-80
2023/02/11 11:47:56;;;;;;;;;;;;;;;;;;5093241;28;20279;-80
2023/02/11 11:50:21;;;;;;;;;;;;;;;;;;5091646;28;19982;-80
2023/02/11 11:52:46;;;;;;;;;;;;;;;;;;5079191;28;19916;-80
2023/02/11 11:55:11;;;;;;;;;;;;;;;;;;5091407;28;20434;-80
2023/02/11 11:57:37;;;;;;;;;;;;;;;;;;5078201;28;19909;-80
2023/02/11 12:00:02;;;;;;;;;;;;;;;;;;5080050;28;19916;-80
2023/02/11 12:02:27;;;;;;;;;;;;;;;;;;5076691;28;19923;-80
2023/02/11 12:04:52;;;;;;;;;;;;;;;;;;5075913;28;19917;-80
2023/02/11 12:07:17;;;;;;;;;;;;;;;;;;5091584;28;20018;-80
2023/02/11 12:09:42;;;;;;;;;;;;;;;;;;5083359;28;19917;-80
2023/02/11 12:12:07;;;;;;;;;;;;;;;;;;5076638;28;19912;-80
2023/02/11 12:14:33;;;;;;;;;;;;;;;;;;5080778;28;20548;-80
2023/02/11 12:16:59;;;;;;;;;;;;;;;;;;5073077;28;19912;-80
2023/02/11 12:19:25;;;;;;;;;;;;;;;;;;5078131;28;19919;-80
2023/02/11 12:21:50;;;;;;;;;;;;;;;;;;5084927;28;19913;-80
2023/02/11 12:24:15;;;;;;;;;;;;;;;;;;5081816;28;19912;-80
2023/02/11 12:26:40;;;;;;;;;;;;;;;;;;5089864;28;19963;-79
2023/02/11 12:29:05;;;;;;;;;;;;;;;;;;5092065;28;19912;-79
2023/02/11 12:31:31;;;;;;;;;;;;;;;;;;5086613;28;19920;-79
2023/02/11 12:33:56;;;;;;;;;;;;;;;;;;5076440;28;20007;-79
2023/02/11 12:36:21;;;;;;;;;;;;;;;;;;5087730;28;19913;-78
2023/02/11 12:38:46;;;;;;;;;;;;;;;;;;5091893;28;19908;-79
2023/02/11 12:41:11;;;;;;;;;;;;;;;;;;5082466;28;19958;-80
2023/02/11 12:43:36;;;;;;;;;;;;;;;;;;5087501;28;19922;-78
2023/02/11 12:46:01;;;;;;;;;;;;;;;;;;5086060;28;19974;-80
2023/02/11 12:48:27;;;;;;;;;;;;;;;;;;5073665;28;19957;-79
2023/02/11 12:50:52;;;;;;;;;;;;;;;;;;5073510;28;19918;-78
2023/02/11 12:53:17;;;;;;;;;;;;;;;;;;5080973;28;19915;-78
2023/02/11 12:55:42;;;;;;;;;;;;;;;;;;5079935;28;20310;-79
2023/02/11 12:58:07;;;;;;;;;;;;;;;;;;5086703;28;19919;-79
2023/02/11 13:00:32;;;;;;;;;;;;;;;;;;5075675;28;20372;-79
2023/02/11 13:02:58;;;;;;;;;;;;;;;;;;5091181;28;20380;-79
2023/02/11 13:05:23;;;;;;;;;;;;;;;;;;5084361;28;19919;-81
2023/02/11 13:07:48;;;;;;;;;;;;;;;;;;5078399;28;19912;-77
2023/02/11 13:10:14;;;;;;;;;;;;;;;;;;5070912;28;19919;-78
2023/02/11 13:15:24;;;;;;;;;;;;;;;;;;5076641;28;19923;-76
2023/02/11 13:17:49;;;;;;;;;;;;;;;;;;5082760;28;19912;-77
2023/02/11 13:20:14;;;;;;;;;;;;;;;;;;5074940;28;19920;-79
2023/02/11 13:22:40;;;;;;;;;;;;;;;;;;5083872;28;19962;-77
2023/02/11 13:25:05;;;;;;;;;;;;;;;;;;5074617;28;19916;-79
2023/02/11 13:27:30;;;;;;;;;;;;;;;;;;5073022;28;19963;-79
2023/02/11 13:29:57;;;;;;;;;;;;;;;;;;5087274;28;19942;-79
2023/02/11 13:32:22;;;;;;;;;;;;;;;;;;5071470;28;19915;-79
2023/02/11 13:34:47;;;;;;;;;;;;;;;;;;5081160;28;19916;-78
2023/02/11 13:37:12;;;;;;;;;;;;;;;;;;5087354;28;19912;-79
2023/02/11 13:39:37;;;;;;;;;;;;;;;;;;5078169;28;20350;-79
2023/02/11 13:42:03;;;;;;;;;;;;;;;;;;5086626;28;19955;-79
2023/02/11 13:44:28;;;;;;;;;;;;;;;;;;5070439;28;19912;-78
2023/02/11 13:46:53;;;;;;;;;;;;;;;;;;5077336;28;19943;-79
2023/02/11 13:49:18;;;;;;;;;;;;;;;;;;5079964;28;19935;-79
2023/02/11 13:51:43;;;;;;;;;;;;;;;;;;5076260;28;19924;-79
2023/02/11 13:54:10;;;;;;;;;;;;;;;;;;5078990;28;19923;-79
2023/02/11 13:56:35;;;;;;;;;;;;;;;;;;5077425;28;20314;-78
2023/02/11 13:59:01;;;;;;;;;;;;;;;;;;5079468;28;20286;-79
2023/02/11 14:01:26;;;;;;;;;;;;;;;;;;5080614;28;20330;-79
2023/02/11 14:09:19;;;;;;;;;;;;;;;;;;5077394;28;20011;-78
2023/02/11 14:11:44;;;;;;;;;;;;;;;;;;5089771;28;19994;-78
2023/02/11 14:14:09;;;;;;;;;;;;;;;;;;5088093;28;19916;-79
2023/02/11 14:16:35;;;;;;;;;;;;;;;;;;5077500;28;19912;-79
2023/02/11 14:19:01;;;;;;;;;;;;;;;;;;5081536;28;19912;-79
2023/02/11 14:21:26;;;;;;;;;;;;;;;;;;5082998;28;20694;-79
2023/02/11 14:23:55;;;;;;;;;;;;;;;;;;5092371;28;20017;-79
2023/02/11 14:26:20;;;;;;;;;;;;;;;;;;5089240;28;19923;-79
2023/02/11 14:28:45;;;;;;;;;;;;;;;;;;5080637;28;19912;-79
2023/02/11 14:31:10;;;;;;;;;;;;;;;;;;5079086;28;19962;-78
2023/02/11 14:33:35;;;;;;;;;;;;;;;;;;5074220;28;19915;-79
2023/02/11 14:36:01;;;;;;;;;;;;;;;;;;5080693;28;19919;-78
2023/02/11 14:38:26;;;;;;;;;;;;;;;;;;5091060;28;20006;-78
2023/02/11 14:40:51;;;;;;;;;;;;;;;;;;5072917;28;19917;-79
2023/02/11 14:43:16;;;;;;;;;;;;;;;;;;5075012;28;19921;-79
2023/02/11 14:45:41;;;;;;;;;;;;;;;;;;5080661;28;19920;-80
2023/02/11 14:48:10;;;;;;;;;;;;;;;;;;5082592;28;19958;-79
2023/02/11 14:50:35;;;;;;;;;;;;;;;;;;5083925;28;20336;-80
2023/02/11 14:53:00;;;;;;;;;;;;;;;;;;5084815;28;20272;-79
2023/02/11 14:55:25;;;;;;;;;;;;;;;;;;5078312;28;19924;-79
2023/02/11 14:57:54;;;;;;;;;;;;;;;;;;5083429;28;19921;-79
2023/02/11 15:00:19;;;;;;;;;;;;;;;;;;5082280;28;19919;-80
2023/02/11 15:02:45;;;;;;;;;;;;;;;;;;5082187;28;19912;-80
2023/02/11 15:05:12;;;;;;;;;;;;;;;;;;5081249;28;19912;-79
2023/02/11 15:07:37;;;;;;;;;;;;;;;;;;5083430;28;19912;-79
2023/02/11 15:10:02;;;;;;;;;;;;;;;;;;5089740;28;19927;-79
2023/02/11 15:12:27;;;;;;;;;;;;;;;;;;5083004;28;19919;-79
2023/02/11 15:14:52;;;;;;;;;;;;;;;;;;5076116;28;19913;-79
2023/02/11 15:17:18;;;;;;;;;;;;;;;;;;5080392;28;19912;-79
2023/02/11 15:19:43;;;;;;;;;;;;;;;;;;5078052;28;19924;-78
2023/02/11 15:22:09;;;;;;;;;;;;;;;;;;5082520;28;19917;-79
2023/02/11 15:24:34;;;;;;;;;;;;;;;;;;5088468;28;19916;-80
2023/02/11 15:26:59;;;;;;;;;;;;;;;;;;5081677;28;19924;-79
2023/02/11 15:29:25;;;;;;;;;;;;;;;;;;5085239;28;19912;-80
2023/02/11 15:31:50;;;;;;;;;;;;;;;;;;5084694;28;19920;-79
2023/02/11 15:34:15;;;;;;;;;;;;;;;;;;5082367;28;19919;-77
2023/02/11 15:36:41;;;;;;;;;;;;;;;;;;5080841;28;19919;-78
2023/02/11 15:39:06;;;;;;;;;;;;;;;;;;5077781;28;19912;-78
2023/02/11 15:41:33;;;;;;;;;;;;;;;;;;5086684;28;19912;-79
2023/02/11 15:43:59;;;;;;;;;;;;;;;;;;5079793;28;19952;-78
2023/02/11 15:46:24;;;;;;;;;;;;;;;;;;5082060;28;19971;-78
2023/02/11 15:48:49;;;;;;;;;;;;;;;;;;5081021;28;19921;-78
2023/02/11 15:51:14;;;;;;;;;;;;;;;;;;5080844;28;19919;-78
2023/02/11 15:53:39;;;;;;;;;;;;;;;;;;5081952;28;19919;-78
2023/02/11 15:56:04;;;;;;;;;;;;;;;;;;5082298;28;20637;-78
2023/02/11 15:58:29;;;;;;;;;;;;;;;;;;5080727;28;20374;-79
2023/02/11 16:00:58;;;;;;;;;;;;;;;;;;5079873;28;19919;-79
2023/02/11 16:03:23;;;;;;;;;;;;;;;;;;5088531;28;19993;-80
2023/02/11 16:05:48;;;;;;;;;;;;;;;;;;5076531;28;20343;-79
2023/02/11 16:08:14;;;;;;;;;;;;;;;;;;5080340;28;20431;-80
2023/02/11 16:10:39;;;;;;;;;;;;;;;;;;5077749;28;19931;-80
2023/02/11 16:13:04;;;;;;;;;;;;;;;;;;5077055;28;19919;-80
2023/02/11 16:15:29;;;;;;;;;;;;;;;;;;5081586;28;19922;-79
2023/02/11 16:17:54;;;;;;;;;;;;;;;;;;5077880;28;19909;-80
2023/02/11 16:20:20;;;;;;;;;;;;;;;;;;5080137;28;20007;-79
2023/02/11 16:22:45;;;;;;;;;;;;;;;;;;5082454;28;19981;-80
2023/02/11 16:25:10;;;;;;;;;;;;;;;;;;5083640;28;19912;-80
2023/02/11 16:27:35;;;;;;;;;;;;;;;;;;5078779;28;20362;-80
2023/02/11 16:30:00;;;;;;;;;;;;;;;;;;5077732;28;19986;-79
2023/02/11 16:32:26;;;;;;;;;;;;;;;;;;5083366;28;20341;-80
2023/02/11 16:34:51;;;;;;;;;;;;;;;;;;5079636;28;19912;-80
2023/02/11 16:37:16;;;;;;;;;;;;;;;;;;5081673;28;19935;-80
2023/02/11 16:39:41;;;;;;;;;;;;;;;;;;5085375;28;20009;-80
2023/02/11 16:42:06;;;;;;;;;;;;;;;;;;5079319;28;19912;-79
2023/02/11 16:44:31;;;;;;;;;;;;;;;;;;5079982;28;19912;-80
2023/02/11 16:46:56;;;;;;;;;;;;;;;;;;5077554;28;19967;-80
2023/02/11 16:49:22;;;;;;;;;;;;;;;;;;5078096;28;19912;-79
2023/02/11 16:51:47;;;;;;;;;;;;;;;;;;5082904;28;19912;-80
2023/02/11 16:54:12;;;;;;;;;;;;;;;;;;5079640;28;19943;-80
2023/02/11 16:56:37;;;;;;;;;;;;;;;;;;5078299;28;20382;-80
2023/02/11 16:59:02;;;;;;;;;;;;;;;;;;5078985;28;20416;-81
2023/02/11 17:01:27;;;;;;;;;;;;;;;;;;5073956;28;19913;-80
2023/02/11 17:03:52;;;;;;;;;;;;;;;;;;5071156;28;19916;-79
2023/02/11 17:06:18;;;;;;;;;;;;;;;;;;5072878;28;19917;-79
2023/02/11 17:08:43;;;;;;;;;;;;;;;;;;5074845;28;19923;-79
2023/02/11 17:11:08;;;;;;;;;;;;;;;;;;5074981;28;19916;-80
2023/02/11 17:13:35;;;;;;;;;;;;;;;;;;5092385;28;20010;-79
2023/02/11 17:16:00;;;;;;;;;;;;;;;;;;5089208;28;19912;-79
2023/02/11 17:18:25;;;;;;;;;;;;;;;;;;5073610;28;19962;-79
2023/02/11 17:20:50;;;;;;;;;;;;;;;;;;5078094;28;19924;-79
2023/02/11 17:23:15;;;;;;;;;;;;;;;;;;5080286;28;20386;-79
2023/02/11 17:25:41;;;;;;;;;;;;;;;;;;5080080;28;19924;-79
2023/02/11 17:28:06;;;;;;;;;;;;;;;;;;5080674;28;19962;-79
2023/02/11 17:30:31;;;;;;;;;;;;;;;;;;5078761;28;19999;-79
2023/02/11 17:32:56;;;;;;;;;;;;;;;;;;5075599;28;19959;-79
2023/02/11 17:35:21;;;;;;;;;;;;;;;;;;5090386;28;19915;-81
2023/02/11 17:37:46;;;;;;;;;;;;;;;;;;5079540;28;19913;-80
2023/02/11 17:40:11;;;;;;;;;;;;;;;;;;5075598;28;19955;-80
2023/02/11 17:42:36;;;;;;;;;;;;;;;;;;5086998;28;19915;-82
2023/02/11 17:45:02;;;;;;;;;;;;;;;;;;5090573;28;19909;-80
2023/02/11 17:47:27;;;;;;;;;;;;;;;;;;5087313;28;19916;-81
2023/02/11 17:49:52;;;;;;;;;;;;;;;;;;5091448;28;19919;-81
2023/02/11 17:52:18;;;;;;;;;;;;;;;;;;5077429;28;19958;-81
2023/02/11 17:54:43;;;;;;;;;;;;;;;;;;5080958;28;19917;-81
2023/02/11 17:57:08;;;;;;;;;;;;;;;;;;5071307;28;19916;-81
2023/02/11 17:59:34;;;;;;;;;;;;;;;;;;5070441;28;19970;-82
2023/02/11 18:01:59;;;;;;;;;;;;;;;;;;5073095;28;19969;-82
2023/02/11 18:04:24;;;;;;;;;;;;;;;;;;5079448;28;20496;-81
2023/02/11 18:06:52;;;;;;;;;;;;;;;;;;5084212;28;20454;-80
2023/02/11 18:09:17;;;;;;;;;;;;;;;;;;5080427;28;19912;-81
2023/02/11 18:11:42;;;;;;;;;;;;;;;;;;5073877;28;19923;-81
2023/02/11 18:14:07;;;;;;;;;;;;;;;;;;5082631;28;19915;-81
2023/02/11 18:16:35;;;;;;;;;;;;;;;;;;5081805;28;19922;-81
2023/02/11 18:19:00;;;;;;;;;;;;;;;;;;5077296;28;19919;-81
2023/02/11 18:21:25;;;;;;;;;;;;;;;;;;5075947;28;19916;-82
2023/02/11 18:23:50;;;;;;;;;;;;;;;;;;5083615;28;19938;-80
2023/02/11 18:26:15;;;;;;;;;;;;;;;;;;5083088;28;20489;-80
2023/02/11 18:28:40;;;;;;;;;;;;;;;;;;5090549;28;20367;-81
2023/02/11 18:31:05;;;;;;;;;;;;;;;;;;5073158;28;20379;-80
2023/02/11 18:33:31;;;;;;;;;;;;;;;;;;5088864;28;19985;-84
2023/02/11 18:35:56;;;;;;;;;;;;;;;;;;5074894;28;19913;-82
2023/02/11 18:38:21;;;;;;;;;;;;;;;;;;5079596;28;19928;-82
2023/02/11 18:40:49;;;;;;;;;;;;;;;;;;5085451;28;19949;-82
2023/02/11 18:43:14;;;;;;;;;;;;;;;;;;5080833;28;20378;-83
2023/02/11 18:45:39;;;;;;;;;;;;;;;;;;5087496;28;20339;-83
2023/02/11 18:48:05;;;;;;;;;;;;;;;;;;5078473;28;19982;-82
2023/02/11 18:50:30;;;;;;;;;;;;;;;;;;5075806;28;19912;-82
2023/02/11 18:52:56;;;;;;;;;;;;;;;;;;5077741;28;20385;-83
2023/02/11 18:55:24;;;;;;;;;;;;;;;;;;5085049;28;19959;-82
2023/02/11 18:57:51;;;;;;;;;;;;;;;;;;5092043;28;20022;-83
2023/02/11 19:00:17;;;;;;;;;;;;;;;;;;5094193;28;19997;-83
2023/02/11 19:02:42;;;;;;;;;;;;;;;;;;5092954;28;19937;-82
2023/02/11 19:05:07;;;;;;;;;;;;;;;;;;5079517;28;20377;-81
2023/02/11 19:07:48;;;;;;;;;;;;;;;;;;5081116;28;19920;-81
2023/02/11 19:10:13;;;;;;;;;;;;;;;;;;5080331;28;20051;-81
2023/02/11 19:12:38;;;;;;;;;;;;;;;;;;5085963;28;20015;-82
2023/02/11 19:15:03;;;;;;;;;;;;;;;;;;5080612;28;20346;-82
2023/02/11 19:17:28;;;;;;;;;;;;;;;;;;5085169;28;19919;-81
2023/02/11 19:19:53;;;;;;;;;;;;;;;;;;5084059;28;19912;-81
2023/02/11 19:22:18;;;;;;;;;;;;;;;;;;5084415;28;19935;-81
2023/02/11 19:24:45;;;;;;;;;;;;;;;;;;5082307;28;20282;-82
2023/02/11 19:27:10;;;;;;;;;;;;;;;;;;5084640;28;19923;-82
2023/02/11 19:29:36;;;;;;;;;;;;;;;;;;5090979;28;19912;-82
2023/02/11 19:32:01;;;;;;;;;;;;;;;;;;5085013;28;19912;-82
2023/02/11 19:34:28;;;;;;;;;;;;;;;;;;5085966;28;20270;-81
2023/02/11 19:36:53;;;;;;;;;;;;;;;;;;5083210;28;19969;-82
2023/02/11 19:39:19;;;;;;;;;;;;;;;;;;5085878;28;20010;-82
2023/02/11 19:41:44;;;;;;;;;;;;;;;;;;5087075;28;19912;-81
2023/02/11 19:44:09;;;;;;;;;;;;;;;;;;5089399;28;19916;-81
2023/02/11 19:46:34;;;;;;;;;;;;;;;;;;5089564;28;19923;-81
2023/02/11 19:48:59;;;;;;;;;;;;;;;;;;5087265;28;19912;-81
2023/02/11 19:51:25;;;;;;;;;;;;;;;;;;5087351;28;19919;-81
2023/02/11 19:53:50;;;;;;;;;;;;;;;;;;5084742;28;19916;-81
2023/02/11 19:56:18;;;;;;;;;;;;;;;;;;5091108;28;19919;-81
2023/02/11 19:58:43;;;;;;;;;;;;;;;;;;5083354;28;19917;-80
2023/02/11 20:01:08;;;;;;;;;;;;;;;;;;5084861;28;19922;-81
2023/02/11 20:03:33;;;;;;;;;;;;;;;;;;5091035;28;19912;-80
2023/02/11 20:05:58;;;;;;;;;;;;;;;;;;5084961;28;19916;-82
2023/02/11 20:08:24;;;;;;;;;;;;;;;;;;5095509;28;19919;-81
2023/02/11 20:10:49;;;;;;;;;;;;;;;;;;5082498;28;19923;-81
2023/02/11 20:13:14;;;;;;;;;;;;;;;;;;5086906;28;19918;-83
2023/02/11 20:15:39;;;;;;;;;;;;;;;;;;5085611;28;19920;-82
2023/02/11 20:18:04;;;;;;;;;;;;;;;;;;5090767;28;19912;-82
2023/02/11 20:20:29;;;;;;;;;;;;;;;;;;5089146;28;19912;-83
2023/02/11 20:22:56;;;;;;;;;;;;;;;;;;5094611;28;19919;-80
2023/02/11 20:25:21;;;;;;;;;;;;;;;;;;5088022;28;19920;-81
2023/02/11 20:27:46;;;;;;;;;;;;;;;;;;5085762;28;20302;-81
2023/02/11 20:30:12;;;;;;;;;;;;;;;;;;5089989;28;19920;-82
2023/02/11 20:32:37;;;;;;;;;;;;;;;;;;5087660;28;19920;-82
2023/02/11 20:35:02;;;;;;;;;;;;;;;;;;5085419;28;19912;-81
2023/02/11 20:37:27;;;;;;;;;;;;;;;;;;5090374;28;20228;-82
2023/02/11 20:39:52;;;;;;;;;;;;;;;;;;5087215;28;20396;-81
2023/02/11 20:42:18;;;;;;;;;;;;;;;;;;5086470;28;19915;-82
2023/02/11 20:44:43;;;;;;;;;;;;;;;;;;5089151;28;20018;-81
2023/02/11 20:47:08;;;;;;;;;;;;;;;;;;5087997;28;19920;-82
2023/02/11 20:49:33;;;;;;;;;;;;;;;;;;5084773;28;19963;-82
2023/02/11 20:51:58;;;;;;;;;;;;;;;;;;5081808;28;19977;-81
2023/02/11 20:54:24;;;;;;;;;;;;;;;;;;5076506;28;19920;-82
2023/02/11 20:56:52;;;;;;;;;;;;;;;;;;5078791;28;19912;-82
2023/02/11 20:59:18;;;;;;;;;;;;;;;;;;5077951;28;19916;-82
2023/02/11 21:01:43;;;;;;;;;;;;;;;;;;5080151;28;19924;-83
2023/02/11 21:04:08;;;;;;;;;;;;;;;;;;5077192;28;20317;-81
2023/02/11 21:06:33;;;;;;;;;;;;;;;;;;5083451;28;20327;-81
2023/02/11 21:08:58;;;;;;;;;;;;;;;;;;5079982;28;19912;-81
2023/02/11 21:11:23;;;;;;;;;;;;;;;;;;5077513;28;20064;-82
2023/02/11 21:13:49;;;;;;;;;;;;;;;;;;5083247;28;19913;-82
2023/02/11 21:16:15;;;;;;;;;;;;;;;;;;5089138;28;19912;-82
2023/02/11 21:18:40;;;;;;;;;;;;;;;;;;5078873;28;19918;-82
2023/02/11 21:21:05;;;;;;;;;;;;;;;;;;5087045;28;19919;-82
2023/02/11 21:23:30;;;;;;;;;;;;;;;;;;5084189;28;19912;-82
2023/02/11 21:25:55;;;;;;;;;;;;;;;;;;5092846;28;20396;-81
2023/02/11 21:28:27;;;;;;;;;;;;;;;;;;5093849;28;19926;-81
2023/02/11 21:30:52;;;;;;;;;;;;;;;;;;5089116;28;19908;-82
2023/02/11 21:33:17;;;;;;;;;;;;;;;;;;5083842;28;19941;-82
2023/02/11 21:35:42;;;;;;;;;;;;;;;;;;5088614;28;19912;-81
2023/02/11 21:38:08;;;;;;;;;;;;;;;;;;5087299;28;19956;-81
2023/02/11 21:40:33;;;;;;;;;;;;;;;;;;5075422;28;19916;-80
2023/02/11 21:42:58;;;;;;;;;;;;;;;;;;5077934;28;19926;-79
2023/02/11 21:45:23;;;;;;;;;;;;;;;;;;5086781;28;20259;-79
2023/02/11 21:47:48;;;;;;;;;;;;;;;;;;5088597;28;19965;-79
2023/02/11 21:50:13;;;;;;;;;;;;;;;;;;5081550;28;19951;-79
2023/02/11 21:52:38;;;;;;;;;;;;;;;;;;5089613;28;19912;-80
2023/02/11 21:55:04;;;;;;;;;;;;;;;;;;5081589;28;19916;-80
2023/02/11 21:57:29;;;;;;;;;;;;;;;;;;5080942;28;20540;-79
2023/02/11 21:59:58;;;;;;;;;;;;;;;;;;5079163;28;20393;-79
2023/02/11 22:02:23;;;;;;;;;;;;;;;;;;5083824;28;19913;-80
2023/02/11 22:04:48;;;;;;;;;;;;;;;;;;5085664;28;19998;-80
2023/02/11 22:07:13;;;;;;;;;;;;;;;;;;5087287;28;19928;-81
2023/02/11 22:09:38;;;;;;;;;;;;;;;;;;5088108;28;20335;-81
2023/02/11 22:12:03;;;;;;;;;;;;;;;;;;5083804;28;19938;-79
2023/02/11 22:14:28;;;;;;;;;;;;;;;;;;5089282;28;19916;-80
2023/02/11 22:16:54;;;;;;;;;;;;;;;;;;5091105;28;19912;-80
2023/02/11 22:19:19;;;;;;;;;;;;;;;;;;5087441;28;20278;-80
2023/02/11 22:21:44;;;;;;;;;;;;;;;;;;5084689;28;20413;-81
2023/02/11 22:24:09;;;;;;;;;;;;;;;;;;5092804;28;20317;-80
2023/02/11 22:26:34;;;;;;;;;;;;;;;;;;5091823;28;19923;-81